Time;durP1;ratioP1;P1;durP2;ratioP2;P2;SDS_P1;SDS_P2;PMS_P1;PMS_P2;Temp;Humidity;BMP_temperature;BMP_pressure;BME280_temperature;BME280_humidity;BME280_pressure;Samples;Min_cycle;Max_cycle;Signal;HPM_P1;HPM_P2
2021/05/13 00:00:30;;;;;;;38.30;19.80;;;;;;;22.98;40.53;100512.03;5117735;27;20782;-51
2021/05/13 00:02:58;;;;;;;38.07;19.20;;;;;;;22.74;41.39;100514.97;5117821;28;20751;-55
2021/05/13 00:05:25;;;;;;;36.53;19.93;;;;;;;23.20;40.31;100512.59;5117300;27;20476;-51
2021/05/13 00:07:54;;;;;;;35.53;18.80;;;;;;;23.21;40.07;100514.34;5118508;28;20476;-53
2021/05/13 00:10:23;;;;;;;40.23;20.47;;;;;;;22.56;41.47;100523.09;5117581;28;20476;-54
2021/05/13 00:12:55;;;;;;;36.77;18.47;;;;;;;22.51;41.53;100526.63;5118596;28;20736;-51
2021/05/13 00:15:24;;;;;;;38.13;17.20;;;;;;;22.30;42.26;100532.13;5116707;28;20496;-53
2021/05/13 00:17:52;;;;;;;40.57;19.97;;;;;;;22.06;42.78;100534.97;5117746;28;20472;-53
2021/05/13 00:20:22;;;;;;;30.27;17.33;;;;;;;22.54;41.71;100531.00;5117947;27;20938;-52
2021/05/13 00:22:49;;;;;;;40.20;20.57;;;;;;;22.11;42.37;100522.66;5118645;28;20573;-54
2021/05/13 00:25:18;;;;;;;35.93;17.77;;;;;;;22.37;42.05;100529.38;5117375;28;20477;-53
2021/05/13 00:27:45;;;;;;;38.83;20.80;;;;;;;22.29;42.39;100530.38;5118211;28;20472;-52
2021/05/13 00:30:14;;;;;;;42.60;21.83;;;;;;;22.23;41.92;100515.53;5117165;28;20477;-54
2021/05/13 00:32:42;;;;;;;39.40;20.27;;;;;;;22.36;41.84;100526.78;5118595;28;20464;-53
2021/05/13 00:35:11;;;;;;;41.57;20.63;;;;;;;21.99;42.99;100521.03;5117223;27;20468;-55
2021/05/13 00:37:39;;;;;;;37.20;19.47;;;;;;;22.19;42.32;100514.69;5117918;28;20555;-52
2021/05/13 00:40:08;;;;;;;41.20;22.03;;;;;;;22.26;41.96;100505.84;5117195;28;20476;-53
2021/05/13 00:42:37;;;;;;;41.47;20.30;;;;;;;22.20;42.11;100495.41;5117984;28;20886;-53
2021/05/13 00:45:06;;;;;;;41.67;21.67;;;;;;;22.28;42.76;100502.34;5116724;28;20563;-52
2021/05/13 00:47:36;;;;;;;40.40;21.27;;;;;;;22.56;41.43;100510.81;5117391;28;20517;-54
2021/05/13 00:50:03;;;;;;;45.30;22.87;;;;;;;22.62;41.55;100510.72;5116953;28;20473;-54
2021/05/13 00:52:31;;;;;;;44.97;20.77;;;;;;;22.06;43.08;100502.56;5118037;28;20444;-53
2021/05/13 00:54:58;;;;;;;37.47;19.67;;;;;;;22.03;42.61;100502.59;5116409;28;20559;-50
2021/05/13 00:57:27;;;;;;;39.87;20.63;;;;;;;21.92;42.90;100503.59;5117241;28;20516;-54
2021/05/13 00:59:59;;;;;;;50.77;20.47;;;;;;;22.33;42.23;100503.16;5113489;28;20502;-54
2021/05/13 01:02:29;;;;;;;41.87;20.10;;;;;;;22.32;41.88;100501.44;5117683;28;20487;-50
2021/05/13 01:04:56;;;;;;;49.37;22.47;;;;;;;22.20;41.94;100491.94;5116625;28;20508;-52
2021/05/13 01:07:23;;;;;;;43.20;22.10;;;;;;;21.68;43.29;100502.88;5117302;28;20532;-54
2021/05/13 01:09:51;;;;;;;40.90;20.50;;;;;;;21.74;43.34;100501.13;5114802;28;20504;-51
2021/05/13 01:12:20;;;;;;;40.67;21.43;;;;;;;21.97;43.16;100500.91;5117429;28;20463;-52
2021/05/13 01:14:49;;;;;;;45.47;20.70;;;;;;;21.84;43.10;100505.44;5116603;28;20942;-51
2021/05/13 01:17:21;;;;;;;37.40;20.97;;;;;;;22.46;42.01;100496.88;5117148;28;20483;-52
2021/05/13 01:19:51;;;;;;;43.17;21.47;;;;;;;22.60;41.49;100496.75;5116206;28;20560;-51
2021/05/13 01:22:20;;;;;;;50.17;22.40;;;;;;;22.48;41.55;100500.38;5116734;28;20467;-49
2021/05/13 01:24:48;;;;;;;40.73;21.97;;;;;;;22.43;41.77;100496.03;5116026;27;20473;-49
2021/05/13 01:27:15;;;;;;;43.87;22.70;;;;;;;22.48;41.43;100503.00;5116784;28;20455;-52
2021/05/13 01:29:45;;;;;;;41.83;22.53;;;;;;;22.74;41.05;100499.22;5115897;27;20481;-51
2021/05/13 01:32:13;;;;;;;39.33;22.00;;;;;;;22.12;42.10;100497.25;5102218;28;20822;-50
2021/05/13 01:34:40;;;;;;;42.47;22.77;;;;;;;22.04;42.63;100494.72;5094852;28;20470;-50
2021/05/13 01:37:07;;;;;;;44.33;21.43;;;;;;;22.49;41.56;100498.59;5095016;28;20473;-52
2021/05/13 01:39:35;;;;;;;43.43;22.37;;;;;;;22.64;40.94;100497.56;5094288;28;20484;-51
2021/05/13 01:42:03;;;;;;;45.57;23.63;;;;;;;22.38;41.97;100488.22;5095251;28;20541;-50
2021/05/13 01:44:30;;;;;;;47.77;23.30;;;;;;;22.21;42.48;100496.28;5093796;28;20528;-51
2021/05/13 01:46:57;;;;;;;48.80;23.63;;;;;;;21.50;43.84;100503.03;5095107;28;20479;-50
2021/05/13 01:49:27;;;;;;;48.93;22.97;;;;;;;21.97;42.63;100499.16;5094339;28;20552;-49
2021/05/13 01:51:54;;;;;;;44.37;23.27;;;;;;;21.78;43.11;100502.84;5095291;28;20748;-49
2021/05/13 01:54:21;;;;;;;44.83;21.27;;;;;;;22.33;41.93;100496.16;5106110;27;20548;-50
2021/05/13 01:56:49;;;;;;;53.50;23.97;;;;;;;22.01;42.71;100499.13;5116448;28;20560;-48
2021/05/13 01:59:17;;;;;;;46.43;23.50;;;;;;;22.15;41.93;100497.22;5115422;27;20559;-49
2021/05/13 02:01:44;;;;;;;49.30;23.37;;;;;;;22.44;41.70;100498.66;5117068;28;20545;-49
2021/05/13 02:04:11;;;;;;;50.33;22.77;;;;;;;22.71;41.54;100493.13;5116256;27;20488;-49
2021/05/13 02:06:38;;;;;;;47.90;21.40;;;;;;;22.52;41.41;100491.56;5115685;28;20953;-51
2021/05/13 02:09:06;;;;;;;40.73;21.83;;;;;;;22.71;40.84;100478.19;5115564;27;20469;-52
2021/05/13 02:11:33;;;;;;;96.43;50.87;;;;;;;22.59;41.60;100475.72;5116948;28;20495;-52
2021/05/13 02:14:01;;;;;;;96.60;48.43;;;;;;;22.49;41.56;100475.81;5115387;27;20503;-51
2021/05/13 02:16:28;;;;;;;68.13;34.47;;;;;;;22.26;42.34;100479.59;5116152;28;20603;-49
2021/05/13 02:18:55;;;;;;;76.53;38.23;;;;;;;22.15;42.67;100480.59;5116003;27;20480;-52
2021/05/13 02:21:22;;;;;;;56.77;26.40;;;;;;;22.39;41.86;100492.59;5116470;28;20579;-49
2021/05/13 02:23:49;;;;;;;54.70;23.40;;;;;;;22.73;40.90;100484.31;5114665;28;20452;-48
2021/05/13 02:26:19;;;;;;;47.83;21.63;;;;;;;22.65;41.54;100481.78;5116301;28;20481;-52
2021/05/13 02:28:47;;;;;;;52.00;26.40;;;;;;;22.16;42.28;100482.34;5115418;28;20479;-50
2021/05/13 02:31:15;;;;;;;56.60;28.23;;;;;;;22.21;42.85;100484.00;5116496;28;20473;-52
2021/05/13 02:33:42;;;;;;;50.50;22.83;;;;;;;22.15;42.69;100484.06;5116385;28;20452;-51
2021/05/13 02:36:10;;;;;;;41.63;21.00;;;;;;;22.21;42.19;100478.75;5115891;28;20500;-52
2021/05/13 02:38:37;;;;;;;49.23;22.03;;;;;;;22.18;42.04;100484.06;5115949;28;20473;-51
2021/05/13 02:41:04;;;;;;;37.73;19.53;;;;;;;22.16;42.48;100480.59;5114859;28;20472;-53
2021/05/13 02:43:32;;;;;;;38.77;21.40;;;;;;;22.27;42.00;100475.22;5116188;28;20464;-53
2021/05/13 02:45:59;;;;;;;40.07;19.90;;;;;;;22.03;42.68;100465.81;5114891;28;20473;-54
2021/05/13 02:48:27;;;;;;;41.07;20.40;;;;;;;22.49;41.05;100470.56;5115786;28;20483;-52
2021/05/13 02:50:54;;;;;;;39.17;19.97;;;;;;;22.53;41.35;100463.53;5115302;28;20479;-51
2021/05/13 02:53:21;;;;;;;40.40;20.80;;;;;;;22.13;42.34;100462.22;5115956;28;20552;-53
2021/05/13 02:55:48;;;;;;;39.60;20.10;;;;;;;22.21;42.11;100460.38;5114675;28;20567;-49
2021/05/13 02:58:15;;;;;;;57.10;22.10;;;;;;;21.94;42.65;100457.16;5115583;28;20949;-49
2021/05/13 03:00:51;;;;;;;39.57;19.70;;;;;;;21.32;43.79;100449.81;5114062;28;21013;-47
2021/05/13 03:03:19;;;;;;;43.00;21.80;;;;;;;21.67;43.09;100448.66;5116136;28;20543;-51
2021/05/13 03:05:48;;;;;;;42.50;21.93;;;;;;;21.92;42.78;100447.56;5115087;28;20568;-50
2021/05/13 03:08:15;;;;;;;54.53;21.50;;;;;;;21.33;44.51;100443.66;5115816;28;20468;-51
2021/05/13 03:10:45;;;;;;;44.67;22.03;;;;;;;21.82;43.09;100445.03;5114700;28;20862;-48
2021/05/13 03:13:19;;;;;;;44.53;21.57;;;;;;;21.66;43.23;100441.66;5116072;28;20453;-47
2021/05/13 03:15:46;;;;;;;47.47;21.50;;;;;;;21.45;43.75;100438.31;5114342;28;20469;-45
2021/05/13 03:18:13;;;;;;;55.33;23.60;;;;;;;21.44;44.03;100433.13;5118061;28;20564;-46
2021/05/13 03:20:43;;;;;;;59.63;27.50;;;;;;;21.50;44.31;100426.94;5119335;28;20472;-49
2021/05/13 03:23:12;;;;;;;47.63;23.63;;;;;;;21.41;43.94;100430.50;5120170;28;20460;-51
2021/05/13 03:25:41;;;;;;;58.90;29.40;;;;;;;21.45;43.97;100430.44;5118574;28;20485;-49
2021/05/13 03:28:09;;;;;;;55.90;25.97;;;;;;;21.65;43.63;100439.03;5119644;28;20478;-48
2021/05/13 03:30:38;;;;;;;51.80;24.20;;;;;;;22.02;42.75;100437.81;5118727;28;20504;-48
2021/05/13 03:33:05;;;;;;;52.20;23.10;;;;;;;22.10;42.82;100438.63;5119805;28;20457;-48
2021/05/13 03:35:32;;;;;;;48.00;24.30;;;;;;;22.12;42.52;100442.09;5118854;28;20487;-47
2021/05/13 03:37:59;;;;;;;52.23;23.47;;;;;;;21.81;42.99;100434.53;5119500;28;20484;-46
2021/05/13 03:40:30;;;;;;;57.70;26.40;;;;;;;22.08;42.86;100432.50;5118454;28;20476;-47
2021/05/13 03:42:57;;;;;;;276.07;150.10;;;;;;;22.06;43.82;100429.91;5119528;28;20904;-51
2021/05/13 03:45:25;;;;;;;115.87;56.20;;;;;;;22.29;42.54;100430.53;5118287;28;20477;-50
2021/05/13 03:47:52;;;;;;;163.73;89.73;;;;;;;22.42;42.84;100432.13;5119261;28;20473;-51
2021/05/13 03:50:19;;;;;;;114.13;56.63;;;;;;;22.69;41.46;100440.56;5118607;28;20476;-46
2021/05/13 03:52:46;;;;;;;164.90;84.40;;;;;;;22.60;41.81;100438.06;5119636;28;20456;-50
2021/05/13 03:55:14;;;;;;;47.80;24.17;;;;;;;22.77;41.11;100433.41;5118009;28;20937;-48
2021/05/13 03:57:42;;;;;;;47.93;23.07;;;;;;;21.88;43.46;100424.88;5118867;28;20545;-49
2021/05/13 04:00:12;;;;;;;52.50;24.80;;;;;;;22.15;42.69;100423.66;5118068;28;20473;-48
2021/05/13 04:02:40;;;;;;;44.70;22.27;;;;;;;22.32;42.10;100420.84;5119414;28;20757;-49
2021/05/13 04:05:08;;;;;;;47.77;23.03;;;;;;;22.26;42.25;100427.03;5118081;28;20483;-49
2021/05/13 04:07:37;;;;;;;68.50;32.03;;;;;;;22.05;43.12;100428.16;5118679;28;20536;-50
2021/05/13 04:10:06;;;;;;;48.47;24.67;;;;;;;21.75;43.52;100424.09;5117792;27;20492;-49
2021/05/13 04:12:36;;;;;;;73.37;34.43;;;;;;;21.63;43.77;100425.94;5119281;28;20452;-50
2021/05/13 04:15:06;;;;;;;57.30;25.77;;;;;;;22.01;42.71;100422.97;5117630;28;20921;-51
2021/05/13 04:17:33;;;;;;;62.73;31.93;;;;;;;22.08;42.93;100419.38;5118694;28;20480;-49
2021/05/13 04:20:00;;;;;;;51.73;24.10;;;;;;;22.52;41.55;100410.09;5117895;27;20622;-48
2021/05/13 04:22:27;;;;;;;64.40;28.20;;;;;;;22.45;41.58;100404.94;5118854;28;20452;-47
2021/05/13 04:24:54;;;;;;;47.80;23.17;;;;;;;22.15;42.28;100397.41;5117637;28;20487;-47
2021/05/13 04:27:22;;;;;;;49.40;23.00;;;;;;;22.07;42.58;100396.63;5118275;28;20463;-48
2021/05/13 04:29:49;;;;;;;71.73;36.13;;;;;;;21.39;43.69;100388.53;5116753;28;20567;-51
2021/05/13 04:32:17;;;;;;;70.60;34.80;;;;;;;21.84;43.15;100387.28;5118872;28;20452;-48
2021/05/13 04:34:44;;;;;;;70.97;32.63;;;;;;;21.96;42.78;100392.34;5117992;28;20504;-50
2021/05/13 04:37:11;;;;;;;48.23;21.37;;;;;;;21.81;43.23;100382.03;5118200;28;20484;-53
2021/05/13 04:39:38;;;;;;;92.33;45.50;;;;;;;21.99;42.89;100375.69;5117022;28;20484;-49
2021/05/13 04:42:05;;;;;;;53.30;27.43;;;;;;;22.17;42.85;100374.63;5118636;28;20499;-48
2021/05/13 04:44:34;;;;;;;64.03;32.50;;;;;;;22.37;42.50;100381.38;5117185;28;20483;-48
2021/05/13 04:47:17;;;;;;;56.90;28.40;;;;;;;21.73;43.83;100384.75;5118124;28;20457;-49
2021/05/13 04:49:46;;;;;;;55.33;27.13;;;;;;;22.17;42.58;100377.25;5117399;28;20787;-48
2021/05/13 04:52:13;;;;;;;52.10;23.73;;;;;;;21.73;43.51;100381.25;5118204;28;20549;-48
2021/05/13 04:54:40;;;;;;;45.80;22.40;;;;;;;21.69;43.41;100373.41;5117031;28;20555;-50
2021/05/13 04:57:07;;;;;;;54.90;24.97;;;;;;;22.01;43.20;100375.69;5118028;28;20477;-46
2021/05/13 04:59:34;;;;;;;52.53;24.70;;;;;;;22.24;42.82;100373.66;5116776;28;20555;-48
2021/05/13 05:02:01;;;;;;;54.80;23.00;;;;;;;22.30;41.99;100380.56;5118179;28;20555;-48
2021/05/13 05:04:28;;;;;;;54.53;29.97;;;;;;;21.96;43.52;100386.25;5117483;28;20469;-49
2021/05/13 05:06:56;;;;;;;57.60;26.00;;;;;;;22.42;41.87;100371.69;5117915;28;20543;-48
2021/05/13 05:09:24;;;;;;;54.10;24.23;;;;;;;22.70;41.64;100367.81;5116781;28;20507;-48
2021/05/13 05:11:52;;;;;;;53.73;25.27;;;;;;;21.82;43.76;100374.16;5118028;28;20449;-46
2021/05/13 05:14:19;;;;;;;67.07;26.90;;;;;;;22.04;43.09;100362.53;5116716;28;20476;-47
2021/05/13 05:16:46;;;;;;;44.67;23.97;;;;;;;22.36;42.35;100362.09;5117010;28;20548;-50
2021/05/13 05:19:13;;;;;;;49.90;23.83;;;;;;;21.84;42.97;100367.13;5116900;28;20475;-52
2021/05/13 05:21:40;;;;;;;50.37;23.07;;;;;;;22.13;42.68;100362.41;5117594;28;20882;-48
2021/05/13 05:24:09;;;;;;;46.27;22.80;;;;;;;21.83;42.84;100362.75;5116513;28;20882;-50
2021/05/13 05:26:36;;;;;;;44.70;21.87;;;;;;;22.01;42.46;100355.56;5117455;28;20507;-50
2021/05/13 05:29:04;;;;;;;177.57;89.53;;;;;;;22.15;44.60;100352.75;5116273;28;20475;-48
2021/05/13 05:31:31;;;;;;;76.47;36.30;;;;;;;23.12;41.57;100349.59;5117391;28;20965;-50
2021/05/13 05:33:59;;;;;;;42.70;20.40;;;;;;;22.24;42.22;100347.38;5116635;27;20769;-48
2021/05/13 05:36:28;;;;;;;42.00;20.20;;;;;;;22.74;41.48;100344.09;5117154;28;20506;-51
2021/05/13 05:38:56;;;;;;;38.20;18.87;;;;;;;22.30;42.06;100343.78;5116227;28;20492;-48
2021/05/13 05:41:23;;;;;;;38.87;19.00;;;;;;;21.61;43.60;100345.47;5117207;28;20492;-53
2021/05/13 05:43:51;;;;;;;42.60;20.80;;;;;;;21.82;43.36;100336.50;5116092;28;20464;-50
2021/05/13 05:46:23;;;;;;;42.10;19.20;;;;;;;21.37;44.45;100337.84;5116705;28;20929;-50
2021/05/13 05:48:50;;;;;;;40.83;20.57;;;;;;;21.82;43.98;100341.75;5116574;28;20473;-47
2021/05/13 05:51:18;;;;;;;54.57;22.10;;;;;;;21.99;42.82;100333.69;5117109;28;20491;-51
2021/05/13 05:53:45;;;;;;;44.20;21.80;;;;;;;22.12;43.00;100337.03;5115943;28;20496;-50
2021/05/13 05:56:12;;;;;;;42.40;19.50;;;;;;;;;;5116849;28;20575;-49
2021/05/13 05:58:40;;;;;;;36.43;19.00;;;;;;;22.64;41.37;100334.59;5116536;28;20544;-47
2021/05/13 06:01:07;;;;;;;36.20;18.10;;;;;;;22.38;42.15;100338.44;5115475;28;20469;-48
2021/05/13 06:03:34;;;;;;;42.97;19.17;;;;;;;22.42;41.39;100337.50;5116966;28;20463;-50
2021/05/13 06:06:02;;;;;;;42.67;20.50;;;;;;;22.29;42.06;100330.69;5115996;28;20476;-50
2021/05/13 06:08:29;;;;;;;39.30;19.30;;;;;;;22.46;41.94;100328.69;5116530;28;20487;-47
2021/05/13 06:10:56;;;;;;;41.47;18.30;;;;;;;21.99;42.59;100338.94;5115558;28;20481;-48
2021/05/13 06:13:23;;;;;;;43.00;18.87;;;;;;;22.14;42.10;100324.75;5116810;28;20454;-48
2021/05/13 06:15:51;;;;;;;36.47;17.70;;;;;;;22.15;41.83;100328.25;5114676;27;20480;-49
2021/05/13 06:18:18;;;;;;;38.07;17.90;;;;;;;21.94;42.89;100325.88;5116444;28;20533;-46
2021/05/13 06:20:45;;;;;;;39.97;17.87;;;;;;;22.16;42.15;100325.63;5115839;28;20905;-50
2021/05/13 06:23:13;;;;;;;40.97;18.27;;;;;;;22.42;41.66;100329.63;5116340;28;20460;-47
2021/05/13 06:25:40;;;;;;;39.80;18.40;;;;;;;22.16;42.43;100332.59;5115077;28;20575;-48
2021/05/13 06:28:08;;;;;;;36.00;18.20;;;;;;;22.11;42.51;100323.03;5116283;28;20508;-49
2021/05/13 06:30:36;;;;;;;40.83;18.60;;;;;;;22.06;42.99;100329.22;5115107;28;20483;-46
2021/05/13 06:33:04;;;;;;;41.37;18.67;;;;;;;22.66;41.24;100331.06;5116676;28;20468;-47
2021/05/13 06:35:32;;;;;;;42.20;18.57;;;;;;;22.43;41.53;100331.38;5115555;28;21002;-47
2021/05/13 06:37:59;;;;;;;47.33;19.83;;;;;;;22.23;42.38;100322.00;5115969;28;20513;-52
2021/05/13 06:40:26;;;;;;;44.60;19.80;;;;;;;22.31;42.19;100327.13;5114896;28;20481;-47
2021/05/13 06:42:53;;;;;;;37.67;17.60;;;;;;;22.48;41.98;100320.78;5116132;28;20463;-48
2021/05/13 06:45:20;;;;;;;37.07;17.70;;;;;;;22.49;41.63;100322.50;5114940;28;20994;-50
2021/05/13 06:47:47;;;;;;;39.40;18.70;;;;;;;22.04;42.69;100325.78;5115730;28;20551;-47
2021/05/13 06:50:15;;;;;;;43.80;19.53;;;;;;;22.13;42.59;100323.00;5115246;28;20484;-51
2021/05/13 06:52:46;;;;;;;40.90;18.03;;;;;;;22.18;41.94;100325.56;5115708;28;20453;-46
2021/05/13 06:55:13;;;;;;;35.83;17.73;;;;;;;22.58;41.40;100316.28;5114796;28;20480;-47
2021/05/13 06:57:40;;;;;;;45.67;18.33;;;;;;;22.87;41.05;100317.59;5115680;28;20493;-51
2021/05/13 07:00:08;;;;;;;35.87;17.27;;;;;;;22.56;41.52;100318.06;5114771;28;20483;-50
2021/05/13 07:02:35;;;;;;;56.53;25.23;;;;;;;22.88;41.67;100314.06;5116147;28;20464;-50
2021/05/13 07:05:04;;;;;;;89.43;42.73;;;;;;;23.09;42.30;100318.09;5115373;28;20479;-50
2021/05/13 07:07:34;;;;;;;35.33;17.50;;;;;;;22.54;42.00;100317.25;5115657;28;20831;-50
2021/05/13 07:10:02;;;;;;;104.00;50.37;;;;;;;23.16;42.14;100309.19;5114778;28;20473;-50
2021/05/13 07:12:29;;;;;;;157.10;87.03;;;;;;;23.71;40.56;100306.47;5116119;28;20452;-47
2021/05/13 07:14:56;;;;;;;32.30;16.37;;;;;;;22.78;41.16;100314.19;5114782;28;20563;-51
2021/05/13 07:17:23;;;;;;;46.83;23.57;;;;;;;22.47;42.06;100316.41;5115606;28;20738;-50
2021/05/13 07:19:51;;;;;;;38.03;19.83;;;;;;;23.08;40.79;100310.22;5114768;28;20507;-50
2021/05/13 07:22:18;;;;;;;29.07;15.83;;;;;;;22.32;41.56;100313.13;5115817;28;20479;-48
2021/05/13 07:24:48;;;;;;;31.93;14.80;;;;;;;21.83;43.27;100306.75;5114724;28;20481;-50
2021/05/13 07:27:16;;;;;;;33.10;16.80;;;;;;;22.73;41.47;100310.81;5115102;28;20453;-46
2021/05/13 07:29:43;;;;;;;28.57;15.10;;;;;;;22.24;42.20;100312.34;5114218;28;20483;-46
2021/05/13 07:32:10;;;;;;;29.67;14.37;;;;;;;22.62;41.01;100305.69;5115808;28;20464;-47
2021/05/13 07:34:37;;;;;;;22.67;12.07;;;;;;;22.09;42.04;100308.16;5114909;28;20476;-46
2021/05/13 07:37:04;;;;;;;32.17;14.80;;;;;;;22.77;41.21;100306.38;5115682;28;20466;-46
2021/05/13 07:39:31;;;;;;;56.83;32.53;;;;;;;23.23;40.14;100314.34;5114475;28;20479;-49
2021/05/13 07:41:59;;;;;;;34.60;18.43;;;;;;;22.93;40.99;100313.09;5115671;28;20540;-49
2021/05/13 07:44:26;;;;;;;27.90;13.10;;;;;;;21.94;42.25;100304.00;5114233;28;20936;-47
2021/05/13 07:46:57;;;;;;;50.37;22.53;;;;;;;22.37;42.38;100308.66;5115248;28;20449;-49
2021/05/13 07:49:25;;;;;;;23.30;12.90;;;;;;;22.52;41.70;100312.00;5114449;28;20818;-47
2021/05/13 07:51:52;;;;;;;64.10;32.10;;;;;;;23.12;41.31;100317.19;5115689;28;20544;-50
2021/05/13 07:54:21;;;;;;;39.33;20.80;;;;;;;22.72;41.27;100316.06;5114423;28;20475;-50
2021/05/13 07:56:48;;;;;;;28.47;15.10;;;;;;;22.12;43.37;100316.91;5115243;28;20463;-49
2021/05/13 07:59:17;;;;;;;36.50;20.23;;;;;;;22.22;42.97;100309.75;5114230;28;20533;-50
2021/05/13 08:01:44;;;;;;;28.70;14.70;;;;;;;22.84;41.33;100313.25;5115367;28;20452;-51
2021/05/13 08:04:11;;;;;;;26.27;13.90;;;;;;;22.89;41.01;100313.16;5115587;28;20551;-47
2021/05/13 08:06:38;;;;;;;23.03;12.50;;;;;;;22.88;40.95;100316.69;5119010;28;20463;-49
2021/05/13 08:09:05;;;;;;;28.90;14.67;;;;;;;22.74;40.98;100317.78;5117916;28;20480;-49
2021/05/13 08:11:33;;;;;;;18.47;11.63;;;;;;;23.17;39.86;100310.09;5119208;28;20557;-49
2021/05/13 08:14:01;;;;;;;30.97;17.93;;;;;;;23.01;41.24;100322.59;5117804;28;20461;-50
2021/05/13 08:16:28;;;;;;;20.50;10.73;;;;;;;23.09;40.00;100311.97;5118469;28;20499;-49
2021/05/13 08:18:56;;;;;;;17.20;10.20;;;;;;;23.21;40.01;100319.63;5117859;28;20476;-48
2021/05/13 08:21:23;;;;;;;20.90;10.80;;;;;;;23.02;40.74;100314.69;5119037;28;20546;-48
2021/05/13 08:23:50;;;;;;;22.07;12.33;;;;;;;23.13;40.84;100309.25;5117555;28;20517;-52
2021/05/13 08:26:17;;;;;;;22.63;11.23;;;;;;;23.22;40.48;100308.22;5118579;28;21008;-50
2021/05/13 08:28:44;;;;;;;20.13;11.63;;;;;;;23.37;40.66;100301.00;5117405;28;20468;-47
2021/05/13 08:31:11;;;;;;;18.00;10.50;;;;;;;22.91;41.66;100299.09;5118865;28;20560;-51
2021/05/13 08:33:39;;;;;;;16.40;9.40;;;;;;;22.91;41.52;100308.75;5118800;28;20457;-48
2021/05/13 08:36:06;;;;;;;15.87;8.80;;;;;;;23.11;40.16;100299.66;5117906;28;20473;-50
2021/05/13 08:38:33;;;;;;;24.53;12.10;;;;;;;23.16;41.40;100300.44;5118319;28;20560;-48
2021/05/13 08:41:00;;;;;;;20.87;10.63;;;;;;;23.17;40.85;100300.41;5117216;28;20480;-47
2021/05/13 08:43:30;;;;;;;16.70;10.13;;;;;;;23.41;40.87;100300.00;5118277;28;20465;-50
2021/05/13 08:45:57;;;;;;;14.03;7.77;;;;;;;23.13;40.90;100308.38;5116859;28;20486;-47
2021/05/13 08:48:28;;;;;;;20.10;9.43;;;;;;;22.47;42.64;100304.16;5118185;28;20846;-48
2021/05/13 08:50:56;;;;;;;25.30;13.00;;;;;;;23.30;41.13;100293.22;5117540;28;20554;-46
2021/05/13 08:53:23;;;;;;;12.70;8.03;;;;;;;23.42;40.27;100294.72;5118313;28;20764;-51
2021/05/13 08:55:50;;;;;;;13.87;8.00;;;;;;;23.76;40.31;100290.56;5116844;28;20567;-48
2021/05/13 08:58:17;;;;;;;17.87;8.30;;;;;;;23.41;41.04;100289.47;5116194;28;20487;-46
2021/05/13 09:00:51;;;;;;;21.23;11.40;;;;;;;23.91;40.42;100286.75;5116783;28;20465;-48
2021/05/13 09:03:35;;;;;;;15.30;8.57;;;;;;;22.75;42.40;100287.97;5116197;27;20471;-48
2021/05/13 09:06:04;;;;;;;14.27;8.13;;;;;;;22.96;41.75;100277.97;5116604;28;20481;-52
2021/05/13 09:08:31;;;;;;;23.07;10.87;;;;;;;22.49;42.97;100286.59;5117460;28;20475;-49
2021/05/13 09:11:09;;;;;;;13.27;8.20;;;;;;;23.03;41.31;100284.84;5116482;28;20473;-49
2021/05/13 09:13:36;;;;;;;20.23;10.40;;;;;;;22.92;42.18;100287.69;5117485;28;20897;-48
2021/05/13 09:16:24;;;;;;;15.53;9.10;;;;;;;22.98;41.98;100278.84;5115463;27;20476;-50
2021/05/13 09:18:52;;;;;;;16.07;10.40;;;;;;;23.44;41.35;100279.75;5115578;28;20484;-49
2021/05/13 09:21:20;;;;;;;23.57;12.63;;;;;;;22.85;42.10;100279.91;5114709;28;20582;-51
2021/05/13 09:23:47;;;;;;;15.57;7.77;;;;;;;22.51;42.96;100287.47;5116172;28;20540;-50
2021/05/13 09:26:17;;;;;;;29.67;16.33;;;;;;;23.46;41.19;100279.75;5116996;28;20559;-49
2021/05/13 09:28:45;;;;;;;20.27;8.80;;;;;;;22.78;42.62;100290.53;5115155;28;20466;-52
2021/05/13 09:31:36;;;;;;;15.30;7.60;;;;;;;23.72;40.41;100276.59;5116843;28;20482;-50
2021/05/13 09:34:05;;;;;;;13.17;7.73;;;;;;;23.66;41.00;100270.56;5114133;27;20469;-51
2021/05/13 09:36:34;;;;;;;30.67;15.40;;;;;;;23.79;39.78;100276.47;5116941;28;20514;-50
2021/05/13 09:39:20;;;;;;;19.13;11.70;;;;;;;23.97;40.01;100277.81;5113411;27;20484;-53
2021/05/13 09:41:58;;;;;;;16.23;9.60;;;;;;;23.68;40.86;100277.53;5115147;28;20459;-52
2021/05/13 09:44:33;;;;;;;13.30;7.80;;;;;;;23.65;41.38;100290.78;5113685;28;20473;-48
2021/05/13 09:47:13;;;;;;;15.70;8.60;;;;;;;24.17;39.94;100282.69;5113747;28;20461;-51
2021/05/13 09:50:02;;;;;;;12.47;8.00;;;;;;;23.39;41.75;100284.28;5113174;27;20501;-50
2021/05/13 09:52:51;;;;;;;12.80;7.00;;;;;;;23.21;42.13;100285.44;5115564;28;20494;-49
2021/05/13 09:55:21;;;;;;;14.53;7.40;;;;;;;22.89;42.53;100278.97;5112535;27;20507;-53
2021/05/13 09:57:51;;;;;;;30.70;16.83;;;;;;;23.66;40.20;100281.97;5116209;28;20469;-50
2021/05/13 10:00:39;;;;;;;21.97;10.47;;;;;;;23.59;41.33;100273.34;5111784;27;20497;-51
2021/05/13 10:03:10;;;;;;;31.90;16.53;;;;;;;23.59;41.37;100270.69;5114927;28;20492;-48
2021/05/13 10:05:38;;;;;;;15.00;7.47;;;;;;;23.85;40.39;100271.91;5115585;27;20477;-50
2021/05/13 10:08:07;;;;;;;12.57;7.47;;;;;;;24.09;40.88;100274.09;5115699;28;20565;-49
2021/05/13 10:10:36;;;;;;;12.47;7.00;;;;;;;22.96;42.15;100275.34;5114621;27;20470;-51
2021/05/13 10:13:05;;;;;;;10.40;6.40;;;;;;;23.59;40.96;100273.34;5116042;28;20454;-52
2021/05/13 10:15:33;;;;;;;13.30;7.17;;;;;;;23.27;41.46;100277.44;5114976;27;20541;-53
2021/05/13 10:18:04;;;;;;;15.30;7.37;;;;;;;23.46;41.62;100263.94;5112975;28;20571;-52
2021/05/13 10:20:32;;;;;;;23.67;11.80;;;;;;;23.83;40.32;100267.59;5115194;27;20825;-51
2021/05/13 10:22:59;;;;;;;16.80;7.43;;;;;;;22.83;43.21;100272.09;5112724;28;20480;-52
2021/05/13 10:25:29;;;;;;;13.87;7.13;;;;;;;23.55;40.92;100268.16;5114237;27;20510;-54
2021/05/13 10:27:58;;;;;;;16.90;8.87;;;;;;;24.03;40.54;100268.94;5115063;28;20654;-54
2021/05/13 10:30:28;;;;;;;17.03;7.40;;;;;;;24.11;40.08;100267.88;5114625;28;20783;-53
2021/05/13 10:33:22;;;;;;;13.10;7.83;;;;;;;23.76;41.01;100274.75;5115829;28;20452;-49
2021/05/13 10:36:06;;;;;;;11.87;7.23;;;;;;;23.73;41.32;100266.91;5113036;28;20475;-53
2021/05/13 10:38:48;;;;;;;12.97;7.87;;;;;;;23.81;41.03;100272.91;5114685;28;20508;-52
2021/05/13 10:41:39;;;;;;;13.07;7.50;;;;;;;23.13;42.87;100266.31;5114753;28;20546;-51
2021/05/13 10:44:38;;;;;;;14.47;7.37;;;;;;;23.51;41.77;100267.34;5112354;27;21296;-51
2021/05/13 10:47:09;;;;;;;15.17;7.23;;;;;;;23.49;41.09;100266.53;5113565;28;20454;-52
2021/05/13 10:49:49;;;;;;;12.50;7.00;;;;;;;23.80;40.00;100263.28;5114856;28;20550;-54
2021/05/13 10:52:41;;;;;;;13.50;6.40;;;;;;;22.50;43.50;100267.31;5115512;28;20448;-52
2021/05/13 10:55:10;;;;;;;12.33;6.80;;;;;;;23.59;41.32;100261.94;5112756;28;20565;-52
2021/05/13 10:57:48;;;;;;;13.10;7.30;;;;;;;23.84;40.06;100264.91;5115039;28;20997;-49
2021/05/13 11:00:26;;;;;;;15.97;6.90;;;;;;;24.01;40.19;100258.44;5113602;27;20490;-51
2021/05/13 11:02:54;;;;;;;14.03;7.50;;;;;;;23.71;41.44;100271.34;5114949;28;20462;-52
2021/05/13 11:05:41;;;;;;;12.90;7.20;;;;;;;23.68;41.10;100272.28;5111781;27;20480;-50
2021/05/13 11:08:28;;;;;;;23.63;12.37;;;;;;;23.33;41.28;100274.72;5113458;28;20476;-52
2021/05/13 11:11:02;;;;;;;12.93;6.60;;;;;;;23.38;41.57;100271.13;5113514;28;20503;-49
2021/05/13 11:13:44;;;;;;;13.10;7.20;;;;;;;23.66;41.40;100268.81;5115736;28;20446;-52
2021/05/13 11:16:45;;;;;;;12.30;7.57;;;;;;;23.45;41.08;100271.00;5113991;28;20494;-48
2021/05/13 11:19:17;;;;;;;13.20;6.67;;;;;;;23.71;41.02;100268.72;5110200;27;20469;-53
2021/05/13 11:21:56;;;;;;;18.33;10.50;;;;;;;23.85;41.15;100271.91;5113101;28;20448;-48